Terminal Aerodrome Forecast
Issued by NWS Tulsa, OK

Home | Current Version | Previous Version | Text Only | Print | Product List | Glossary On
Versions: 1 2 3 4 5 6 7 8 9 10 11 12 13 14 15 16 17 18 19 20 21
904
FTUS44 KTSA 070520
TAFFSM
TAF
KFSM 070520Z 0706/0806 34004KT P6SM SCT035 SCT150 BKN250
     FM070800 06004KT P6SM BKN035 OVC070
     FM071800 07007KT P6SM OVC025
     FM080300 36013KT P6SM OVC030=

USA.gov is the U.S. government's official web portal to all federal, state and local government web resources and services.